createdAt,value
2022-11-24T00:00:42.289Z,98518.91
2022-11-24T00:04:02.465Z,98518.88
2022-11-24T00:07:17.013Z,98517.25
2022-11-24T00:10:18.814Z,98518.39
2022-11-24T00:13:20.551Z,98521.64
2022-11-24T00:16:23.533Z,98522.02
2022-11-24T00:19:25.701Z,98523.91
2022-11-24T00:22:28.135Z,98528.48
2022-11-24T00:25:29.966Z,98528.98
2022-11-24T00:28:33.601Z,98533.19
2022-11-24T00:31:42.680Z,98533.90
2022-11-24T00:34:44.452Z,98535.65
2022-11-24T00:37:46.296Z,98538.36
2022-11-24T00:40:48.072Z,98540.89
2022-11-24T00:43:53.501Z,98543.27
2022-11-24T00:46:55.455Z,98543.45
2022-11-24T00:49:57.445Z,98544.10
2022-11-24T00:52:59.477Z,98546.52
2022-11-24T00:56:03.873Z,98550.48
2022-11-24T00:59:05.853Z,98547.36
2022-11-24T01:02:07.903Z,98550.17
2022-11-24T01:05:09.768Z,98550.55
2022-11-24T01:08:11.636Z,98546.36
2022-11-24T01:11:26.084Z,98549.17
2022-11-24T01:14:28.797Z,98549.77
2022-11-24T01:17:30.781Z,98552.65
2022-11-24T01:20:32.697Z,98553.95
2022-11-24T01:23:34.761Z,98557.64
2022-11-24T01:26:36.981Z,98557.80
2022-11-24T01:29:38.860Z,98562.57
2022-11-24T01:32:40.701Z,98564.08
2022-11-24T01:35:42.489Z,98566.12
2022-11-24T01:38:44.109Z,98567.35
2022-11-24T01:41:45.970Z,98569.50
2022-11-24T01:44:48.467Z,98571.88
2022-11-24T01:47:50.318Z,98572.46
2022-11-24T01:50:57.145Z,98575.30
2022-11-24T01:54:08.961Z,98579.13
2022-11-24T01:57:24.413Z,98584.16
2022-11-24T02:00:26.284Z,98576.50
2022-11-24T02:03:31.363Z,98576.61
2022-11-24T02:06:34.055Z,98578.41
2022-11-24T02:09:43.370Z,98579.83
2022-11-24T02:12:47.643Z,98582.56
2022-11-24T02:15:49.453Z,98582.15
2022-11-24T02:18:51.406Z,98577.77
2022-11-24T02:21:53.251Z,98584.38
2022-11-24T02:25:10.284Z,98581.75
2022-11-24T02:28:18.407Z,98588.30
2022-11-24T02:31:20.473Z,98587.71
2022-11-24T02:34:22.416Z,98590.59
2022-11-24T02:37:25.254Z,98594.61
2022-11-24T02:40:28.141Z,98596.84
2022-11-24T02:43:34.633Z,98593.90
2022-11-24T02:46:36.372Z,98598.23
2022-11-24T02:49:38.077Z,98599.97
2022-11-24T02:52:39.915Z,98598.55
2022-11-24T02:55:41.679Z,98593.44
2022-11-24T02:58:43.455Z,98598.81
2022-11-24T03:01:45.528Z,98602.44
2022-11-24T03:04:47.391Z,98599.84
2022-11-24T03:07:49.167Z,98600.65
2022-11-24T03:10:50.977Z,98603.20
2022-11-24T03:13:52.612Z,98606.13
2022-11-24T03:16:54.487Z,98599.19
2022-11-24T03:20:00.129Z,98603.49
2022-11-24T03:23:05.224Z,98601.70
2022-11-24T03:26:11.855Z,98601.20
2022-11-24T03:29:13.689Z,98598.45
2022-11-24T03:32:15.320Z,98600.23
2022-11-24T03:35:17.165Z,98606.30
2022-11-24T03:38:18.900Z,98613.33
2022-11-24T03:41:20.738Z,98611.05
2022-11-24T03:44:22.726Z,98610.61
2022-11-24T03:47:27.761Z,98609.65
2022-11-24T03:50:29.549Z,98608.09
2022-11-24T03:53:32.032Z,98613.29
2022-11-24T03:56:33.819Z,98617.08
2022-11-24T03:59:35.529Z,98616.10
2022-11-24T04:02:38.194Z,98620.77
2022-11-24T04:05:40.208Z,98624.94
2022-11-24T04:08:42.094Z,98631.19
2022-11-24T04:12:02.448Z,98626.02
2022-11-24T04:15:04.884Z,98629.55
2022-11-24T04:18:07.661Z,98631.11
2022-11-24T04:21:09.627Z,98632.47
2022-11-24T04:24:11.377Z,98636.85
2022-11-24T04:27:13.295Z,98637.88
2022-11-24T04:30:15.195Z,98639.23
2022-11-24T04:33:17.107Z,98644.95
2022-11-24T04:36:18.913Z,98646.79
2022-11-24T04:39:26.347Z,98648.73
2022-11-24T04:42:30.214Z,98647.71
2022-11-24T04:45:31.877Z,98645.56
2022-11-24T04:48:33.794Z,98649.68
2022-11-24T04:51:35.464Z,98651.42
2022-11-24T04:54:37.092Z,98650.95
2022-11-24T04:57:39.065Z,98654.29
2022-11-24T05:00:41.000Z,98654.95
2022-11-24T05:03:42.859Z,98656.27
2022-11-24T05:06:44.671Z,98658.05
2022-11-24T05:10:05.741Z,98657.80
2022-11-24T05:13:10.689Z,98663.51
2022-11-24T05:16:12.659Z,98663.49
2022-11-24T05:19:14.576Z,98665.42
2022-11-24T05:22:16.442Z,98666.50
2022-11-24T05:25:18.126Z,98665.66
2022-11-24T05:28:19.945Z,98662.65
2022-11-24T05:31:21.721Z,98666.39
2022-11-24T05:34:23.959Z,98677.75
2022-11-24T05:37:25.778Z,98676.48
2022-11-24T05:40:27.515Z,98677.88
2022-11-24T05:43:29.315Z,98679.17
2022-11-24T05:46:31.021Z,98681.20
2022-11-24T05:49:32.554Z,98681.05
2022-11-24T05:52:34.925Z,98685.83
2022-11-24T05:55:36.894Z,98692.52
2022-11-24T05:58:38.791Z,98690.27
2022-11-24T06:01:40.565Z,98691.70
2022-11-24T06:04:42.328Z,98693.67
2022-11-24T06:07:44.146Z,98697.21
2022-11-24T06:10:45.947Z,98698.22
2022-11-24T06:13:48.710Z,98701.52
2022-11-24T06:16:50.740Z,98705.90
2022-11-24T06:19:52.309Z,98707.88
2022-11-24T06:22:54.106Z,98711.58
2022-11-24T06:25:57.598Z,98711.55
2022-11-24T06:28:59.530Z,98715.31
2022-11-24T06:32:01.934Z,98715.14
2022-11-24T06:35:04.894Z,98718.46
2022-11-24T06:38:07.485Z,98714.34
2022-11-24T06:41:15.935Z,98718.05
2022-11-24T06:44:18.121Z,98721.71
2022-11-24T06:47:19.815Z,98723.21
2022-11-24T06:50:22.208Z,98731.00
2022-11-24T06:53:24.055Z,98731.60
2022-11-24T06:56:25.963Z,98733.39
2022-11-24T06:59:27.801Z,98731.41
2022-11-24T07:02:29.656Z,98733.34
2022-11-24T07:05:31.407Z,98738.89
2022-11-24T07:08:33.192Z,98743.63
2022-11-24T07:11:35.168Z,98745.04
2022-11-24T07:14:37.422Z,98748.91
2022-11-24T07:17:39.891Z,98753.17
2022-11-24T07:20:41.573Z,98756.71
2022-11-24T07:23:43.424Z,98762.09
2022-11-24T07:26:45.240Z,98761.00
2022-11-24T07:29:47.220Z,98763.34
2022-11-24T07:32:49.090Z,98763.27
2022-11-24T07:35:51.769Z,98764.91
2022-11-24T07:38:53.450Z,98768.64
2022-11-24T07:41:55.506Z,98767.89
2022-11-24T07:44:57.367Z,98770.39
2022-11-24T07:47:59.017Z,98767.70
2022-11-24T07:51:01.271Z,98763.52
2022-11-24T07:54:03.044Z,98765.77
2022-11-24T07:57:04.727Z,98773.85
2022-11-24T08:00:06.906Z,98775.06
2022-11-24T08:03:08.816Z,98777.59
2022-11-24T08:06:31.773Z,98784.25
2022-11-24T08:09:34.221Z,98783.36
2022-11-24T08:12:35.993Z,98786.39
2022-11-24T08:15:37.608Z,98785.52
2022-11-24T08:18:39.685Z,98790.63
2022-11-24T08:21:41.428Z,98793.77
2022-11-24T08:24:47.262Z,98795.11
2022-11-24T08:27:49.049Z,98797.93
2022-11-24T08:30:50.833Z,98798.40
2022-11-24T08:33:52.700Z,98801.82
2022-11-24T08:36:54.432Z,98802.62
2022-11-24T08:39:56.164Z,98804.84
2022-11-24T08:43:01.255Z,98807.69
2022-11-24T08:46:06.343Z,98808.11
2022-11-24T08:49:08.358Z,98811.46
2022-11-24T08:52:10.041Z,98814.54
2022-11-24T08:55:11.914Z,98811.70
2022-11-24T08:58:13.631Z,98817.92
2022-11-24T09:01:15.866Z,98818.00
2022-11-24T09:04:17.816Z,98814.25
2022-11-24T09:07:20.437Z,98818.14
2022-11-24T09:10:22.136Z,98816.02
2022-11-24T09:13:23.917Z,98818.08
2022-11-24T09:16:27.713Z,98816.56
2022-11-24T09:19:29.757Z,98815.90
2022-11-24T09:22:31.897Z,98816.72
2022-11-24T09:25:33.573Z,98816.06
2022-11-24T09:28:35.575Z,98813.21
2022-11-24T09:31:39.231Z,98814.59
2022-11-24T09:34:40.987Z,98814.92
2022-11-24T09:37:44.821Z,98814.23
2022-11-24T09:40:46.610Z,98819.55
2022-11-24T09:43:59.490Z,98818.05
2022-11-24T09:47:10.390Z,98815.67
2022-11-24T09:50:18.709Z,98816.02
2022-11-24T09:53:42.249Z,98818.33
2022-11-24T09:56:44.135Z,98818.58
2022-11-24T09:59:45.845Z,98820.99
2022-11-24T10:02:48.009Z,98818.35
2022-11-24T10:05:51.155Z,98821.73
2022-11-24T10:09:07.659Z,98818.23
2022-11-24T10:12:35.043Z,98817.11
2022-11-24T10:15:45.053Z,98815.48
2022-11-24T10:19:13.224Z,98817.23
2022-11-24T10:22:55.095Z,98812.96
2022-11-24T10:25:58.227Z,98815.52
2022-11-24T10:28:59.897Z,98815.43
2022-11-24T10:32:01.611Z,98817.15
2022-11-24T10:35:18.748Z,98820.15
2022-11-24T10:38:40.485Z,98823.88
2022-11-24T10:41:59.305Z,98822.29
2022-11-24T10:45:13.492Z,98826.02
2022-11-24T10:48:26.757Z,98824.45
2022-11-24T10:51:31.325Z,98824.83
2022-11-24T10:54:35.990Z,98822.61
2022-11-24T10:57:40.963Z,98821.96
2022-11-24T11:00:42.872Z,98823.50
2022-11-24T11:03:48.264Z,98819.61
2022-11-24T11:06:50.399Z,98817.60
2022-11-24T11:10:22.069Z,98817.11
2022-11-24T11:13:30.835Z,98817.77
2022-11-24T11:16:38.792Z,98815.50
2022-11-24T11:19:49.453Z,98818.84
2022-11-24T11:22:51.858Z,98816.15
2022-11-24T11:26:24.953Z,98814.97
2022-11-24T11:36:19.941Z,98818.73
2022-11-24T11:39:32.809Z,98818.20
2022-11-24T11:46:12.256Z,98822.28
2022-11-24T11:49:14.264Z,98822.63
2022-11-24T11:52:15.719Z,98825.48
2022-11-24T11:55:59.434Z,98824.62
2022-11-24T11:59:16.696Z,98822.67
2022-11-24T12:02:49.967Z,98822.15
2022-11-24T12:06:03.875Z,98826.84
2022-11-24T12:09:23.605Z,98821.52
2022-11-24T12:12:34.568Z,98819.68
2022-11-24T12:15:44.958Z,98822.61
2022-11-24T12:19:05.679Z,98827.60
2022-11-24T12:22:24.918Z,98823.77
2022-11-24T12:25:31.382Z,98825.63
2022-11-24T12:28:44.018Z,98828.95
2022-11-24T12:32:10.609Z,98827.89
2022-11-24T12:35:23.483Z,98829.77
2022-11-24T12:38:30.625Z,98840.48
2022-11-24T12:41:49.259Z,98846.92
2022-11-24T12:45:09.449Z,98845.62
2022-11-24T12:48:48.547Z,98851.48
2022-11-24T12:51:58.433Z,98851.98
2022-11-24T12:55:00.589Z,98855.38
2022-11-24T12:58:24.196Z,98855.06
2022-11-24T13:01:36.256Z,98860.43
2022-11-24T13:04:46.953Z,98862.45
2022-11-24T13:07:54.123Z,98864.55
2022-11-24T13:11:21.808Z,98862.33
2022-11-24T13:14:30.677Z,98861.88
2022-11-24T13:20:58.251Z,98864.36
2022-11-24T13:24:02.548Z,98866.06
2022-11-24T13:27:13.666Z,98866.80
2022-11-24T13:30:44.983Z,98868.04
2022-11-24T13:33:47.104Z,98869.80
2022-11-24T13:36:53.670Z,98872.23
2022-11-24T13:40:14.251Z,98879.28
2022-11-24T13:43:16.093Z,98889.18
2022-11-24T13:47:03.310Z,98892.82
2022-11-24T13:50:19.326Z,98892.60
2022-11-24T13:53:42.157Z,98895.92
2022-11-24T13:56:43.818Z,98904.18
2022-11-24T13:59:45.539Z,98907.07
2022-11-24T14:02:48.240Z,98910.02
2022-11-24T14:05:53.533Z,98915.27
2022-11-24T14:08:55.791Z,98921.27
2022-11-24T14:12:08.059Z,98920.73
2022-11-24T14:15:25.229Z,98925.62
2022-11-24T14:18:29.369Z,98935.98
2022-11-24T14:21:36.590Z,98943.66
2022-11-24T14:24:41.543Z,98948.51
2022-11-24T14:27:43.788Z,98951.19
2022-11-24T14:30:45.289Z,98957.67
2022-11-24T14:33:47.339Z,98965.50
2022-11-24T14:36:49.512Z,98971.49
2022-11-24T14:39:51.251Z,98972.85
2022-11-24T14:42:52.780Z,98975.02
2022-11-24T14:46:14.515Z,98972.88
2022-11-24T14:49:23.204Z,98981.31
2022-11-24T14:52:25.574Z,98984.44
2022-11-24T14:55:30.027Z,98987.91
2022-11-24T14:58:36.475Z,98989.95
2022-11-24T15:01:40.851Z,98993.00
2022-11-24T15:05:02.692Z,98995.61
2022-11-24T15:08:05.450Z,98999.79
2022-11-24T15:11:07.638Z,99003.23
2022-11-24T15:14:46.364Z,99009.33
2022-11-24T15:17:48.931Z,99010.34
2022-11-24T15:20:50.754Z,99014.45
2022-11-24T15:24:11.450Z,99017.02
2022-11-24T15:27:13.411Z,99021.35
2022-11-24T15:30:15.228Z,99035.95
2022-11-24T15:33:18.430Z,99039.06
2022-11-24T15:36:20.889Z,99042.85
2022-11-24T15:39:22.845Z,99045.25
2022-11-24T15:42:24.680Z,99052.77
2022-11-24T15:45:29.238Z,99054.08
2022-11-24T15:48:31.521Z,99055.89
2022-11-24T15:51:33.884Z,99055.05
2022-11-24T15:54:36.543Z,99059.65
2022-11-24T15:57:38.511Z,99061.21
2022-11-24T16:00:40.544Z,99068.03
2022-11-24T16:03:47.592Z,99069.49
2022-11-24T16:06:50.673Z,99070.35
2022-11-24T16:09:52.865Z,99066.89
2022-11-24T16:12:54.896Z,99071.94
2022-11-24T16:15:56.594Z,99074.95
2022-11-24T16:18:58.220Z,99079.66
2022-11-24T16:22:00.235Z,99083.23
2022-11-24T16:25:04.139Z,99085.36
2022-11-24T16:28:05.867Z,99089.40
2022-11-24T16:31:07.527Z,99090.46
2022-11-24T16:34:09.197Z,99096.42
2022-11-24T16:37:10.831Z,99095.98
2022-11-24T16:40:12.946Z,99101.45
2022-11-24T16:43:14.629Z,99100.55
2022-11-24T16:46:21.317Z,99105.54
2022-11-24T16:49:23.199Z,99107.59
2022-11-24T16:52:24.936Z,99104.61
2022-11-24T16:55:27.036Z,99106.25
2022-11-24T16:58:29.033Z,99104.59
2022-11-24T17:01:32.846Z,99108.53
2022-11-24T17:04:35.197Z,99107.01
2022-11-24T17:07:37.264Z,99108.92
2022-11-24T17:10:39.011Z,99113.44
2022-11-24T17:13:41.588Z,99117.85
2022-11-24T17:16:43.442Z,99122.33
2022-11-24T17:19:45.292Z,99122.96
2022-11-24T17:22:46.818Z,99126.21
2022-11-24T17:25:48.841Z,99134.73
2022-11-24T17:28:50.855Z,99136.77
2022-11-24T17:31:52.596Z,99139.27
2022-11-24T17:34:54.188Z,99143.39
2022-11-24T17:37:57.120Z,99139.85
2022-11-24T17:40:59.232Z,99148.85
2022-11-24T17:44:01.124Z,99151.04
2022-11-24T17:47:02.791Z,99155.77
2022-11-24T17:50:04.904Z,99158.70
2022-11-24T17:53:06.759Z,99159.95
2022-11-24T17:56:08.731Z,99164.71
2022-11-24T17:59:10.569Z,99167.04
2022-11-24T18:02:12.261Z,99170.17
2022-11-24T18:05:13.931Z,99167.02
2022-11-24T18:08:15.647Z,99171.39
2022-11-24T18:11:30.226Z,99175.22
2022-11-24T18:14:33.550Z,99179.02
2022-11-24T18:17:35.616Z,99181.66
2022-11-24T18:20:37.181Z,99182.20
2022-11-24T18:23:38.990Z,99190.41
2022-11-24T18:26:40.851Z,99194.63
2022-11-24T18:29:42.461Z,99197.67
2022-11-24T18:32:44.237Z,99197.98
2022-11-24T18:35:59.998Z,99200.54
2022-11-24T18:39:06.067Z,99202.86
2022-11-24T18:42:11.183Z,99201.61
2022-11-24T18:45:12.882Z,99204.73
2022-11-24T18:48:14.771Z,99206.75
2022-11-24T18:51:16.519Z,99201.46
2022-11-24T18:54:18.316Z,99201.24
2022-11-24T18:57:19.903Z,99202.19
2022-11-24T19:00:21.803Z,99205.23
2022-11-24T19:03:23.458Z,99209.80
2022-11-24T19:06:34.102Z,99216.27
2022-11-24T19:09:36.164Z,99217.59
2022-11-24T19:12:37.771Z,99224.85
2022-11-24T19:15:39.564Z,99228.63
2022-11-24T19:18:41.450Z,99232.66
2022-11-24T19:21:43.260Z,99233.45
2022-11-24T19:24:46.657Z,99237.00
2022-11-24T19:27:48.567Z,99238.41
2022-11-24T19:30:50.234Z,99240.36
2022-11-24T19:33:54.305Z,99245.13
2022-11-24T19:36:56.055Z,99244.08
2022-11-24T19:39:57.679Z,99248.92
2022-11-24T19:42:59.599Z,99247.67
2022-11-24T19:46:06.925Z,99246.83
2022-11-24T19:49:08.967Z,99250.73
2022-11-24T19:52:10.817Z,99257.38
2022-11-24T19:55:12.492Z,99258.70
2022-11-24T19:58:14.630Z,99260.11
2022-11-24T20:01:24.772Z,99265.92
2022-11-24T20:04:26.719Z,99269.27
2022-11-24T20:07:28.382Z,99270.98
2022-11-24T20:10:30.455Z,99270.18
2022-11-24T20:13:34.101Z,99275.08
2022-11-24T20:16:36.579Z,99275.92
2022-11-24T20:19:38.555Z,99278.52
2022-11-24T20:22:40.413Z,99286.08
2022-11-24T20:25:42.109Z,99289.26
2022-11-24T20:28:43.791Z,99291.77
2022-11-24T20:31:48.775Z,99292.45
2022-11-24T20:34:50.669Z,99294.38
2022-11-24T20:37:52.303Z,99298.75
2022-11-24T20:41:04.658Z,99296.86
2022-11-24T20:44:15.471Z,99298.98
2022-11-24T20:47:17.270Z,99299.63
2022-11-24T20:50:18.984Z,99305.09
2022-11-24T20:53:20.707Z,99307.20
2022-11-24T20:56:31.695Z,99308.61
2022-11-24T20:59:33.581Z,99311.89
2022-11-24T21:02:35.326Z,99319.45
2022-11-24T21:05:37.529Z,99316.25
2022-11-24T21:08:39.615Z,99319.73
2022-11-24T21:11:41.516Z,99321.73
2022-11-24T21:14:43.240Z,99328.70
2022-11-24T21:17:44.879Z,99330.59
2022-11-24T21:20:47.219Z,99329.91
2022-11-24T21:23:49.443Z,99332.08
2022-11-24T21:26:52.969Z,99330.73
2022-11-24T21:29:54.917Z,99335.95
2022-11-24T21:32:56.639Z,99339.05
2022-11-24T21:36:04.996Z,99343.45
2022-11-24T21:39:06.899Z,99343.79
2022-11-24T21:42:08.980Z,99346.03
2022-11-24T21:45:11.786Z,99344.52
2022-11-24T21:48:13.602Z,99352.25
2022-11-24T21:51:15.872Z,99351.45
2022-11-24T21:54:17.499Z,99357.29
2022-11-24T21:57:19.237Z,99359.85
2022-11-24T22:00:20.960Z,99363.06
2022-11-24T22:03:22.851Z,99364.64
2022-11-24T22:06:24.612Z,99372.15
2022-11-24T22:09:26.396Z,99371.75
2022-11-24T22:12:29.340Z,99369.96
2022-11-24T22:15:31.016Z,99371.09
2022-11-24T22:18:43.128Z,99372.94
2022-11-24T22:21:44.924Z,99376.54
2022-11-24T22:24:46.816Z,99377.75
2022-11-24T22:27:48.614Z,99379.34
2022-11-24T22:30:50.279Z,99381.36
2022-11-24T22:33:52.963Z,99376.02
2022-11-24T22:36:54.597Z,99371.91
2022-11-24T22:39:56.262Z,99375.67
2022-11-24T22:43:00.179Z,99377.80
2022-11-24T22:46:11.295Z,99379.22
2022-11-24T22:49:13.190Z,99385.77
2022-11-24T22:52:14.816Z,99389.79
2022-11-24T22:55:16.590Z,99393.83
2022-11-24T22:58:18.250Z,99394.77
2022-11-24T23:01:22.606Z,99400.40
2022-11-24T23:04:24.533Z,99403.52
2022-11-24T23:07:26.381Z,99403.30
2022-11-24T23:10:28.114Z,99408.68
2022-11-24T23:13:30.426Z,99408.15
2022-11-24T23:16:32.248Z,99412.59
2022-11-24T23:19:34.009Z,99415.15
2022-11-24T23:22:36.003Z,99416.81
2022-11-24T23:25:37.607Z,99416.08
2022-11-24T23:28:39.932Z,99414.77
2022-11-24T23:31:41.812Z,99412.31
2022-11-24T23:34:43.525Z,99407.34
2022-11-24T23:38:06.680Z,99408.55
2022-11-24T23:41:10.921Z,99412.20
2022-11-24T23:44:12.710Z,99413.77
2022-11-24T23:47:14.394Z,99410.70
2022-11-24T23:50:16.107Z,99412.70
2022-11-24T23:53:17.691Z,99414.36
2022-11-24T23:56:24.968Z,99411.92
2022-11-24T23:59:27.087Z,99412.27
